sensor_id;sensor_type;location;lat;lon;timestamp;P1;durP1;ratioP1;P2;durP2;ratioP2
2035;SDS011;23642;42.658;23.350;2022-11-03T00:01:31;100.37;;;94.60;;
2035;SDS011;23642;42.658;23.350;2022-11-03T00:03:58;97.37;;;91.90;;
2035;SDS011;23642;42.658;23.350;2022-11-03T00:06:24;99.40;;;93.63;;
2035;SDS011;23642;42.658;23.350;2022-11-03T00:08:51;100.37;;;94.77;;
2035;SDS011;23642;42.658;23.350;2022-11-03T00:11:19;98.70;;;93.10;;
2035;SDS011;23642;42.658;23.350;2022-11-03T00:13:46;99.07;;;93.47;;
2035;SDS011;23642;42.658;23.350;2022-11-03T00:16:13;93.37;;;87.80;;
2035;SDS011;23642;42.658;23.350;2022-11-03T00:18:39;93.60;;;88.17;;
2035;SDS011;23642;42.658;23.350;2022-11-03T00:21:06;95.63;;;90.03;;
2035;SDS011;23642;42.658;23.350;2022-11-03T00:23:35;92.07;;;86.73;;
2035;SDS011;23642;42.658;23.350;2022-11-03T00:26:04;95.80;;;89.90;;
2035;SDS011;23642;42.658;23.350;2022-11-03T00:28:34;94.60;;;88.60;;
2035;SDS011;23642;42.658;23.350;2022-11-03T00:31:04;97.43;;;91.33;;
2035;SDS011;23642;42.658;23.350;2022-11-03T00:33:33;97.80;;;92.20;;
2035;SDS011;23642;42.658;23.350;2022-11-03T00:36:00;98.63;;;92.70;;
2035;SDS011;23642;42.658;23.350;2022-11-03T00:38:27;101.13;;;95.37;;
2035;SDS011;23642;42.658;23.350;2022-11-03T00:40:54;102.37;;;95.87;;
2035;SDS011;23642;42.658;23.350;2022-11-03T00:43:22;97.63;;;92.10;;
2035;SDS011;23642;42.658;23.350;2022-11-03T00:45:51;96.93;;;91.07;;
2035;SDS011;23642;42.658;23.350;2022-11-03T00:48:18;98.73;;;93.07;;
2035;SDS011;23642;42.658;23.350;2022-11-03T00:50:58;98.47;;;92.87;;
2035;SDS011;23642;42.658;23.350;2022-11-03T00:53:25;98.70;;;93.20;;
2035;SDS011;23642;42.658;23.350;2022-11-03T00:55:52;104.97;;;98.80;;
2035;SDS011;23642;42.658;23.350;2022-11-03T00:58:19;99.77;;;93.80;;
2035;SDS011;23642;42.658;23.350;2022-11-03T01:00:46;99.27;;;93.17;;
2035;SDS011;23642;42.658;23.350;2022-11-03T01:03:14;100.60;;;94.90;;
2035;SDS011;23642;42.658;23.350;2022-11-03T01:05:41;101.40;;;95.60;;
2035;SDS011;23642;42.658;23.350;2022-11-03T01:08:25;98.97;;;93.10;;
2035;SDS011;23642;42.658;23.350;2022-11-03T01:11:02;99.47;;;93.40;;
2035;SDS011;23642;42.658;23.350;2022-11-03T01:13:48;103.80;;;97.77;;
2035;SDS011;23642;42.658;23.350;2022-11-03T01:16:14;98.37;;;92.57;;
2035;SDS011;23642;42.658;23.350;2022-11-03T01:18:42;98.73;;;92.73;;
2035;SDS011;23642;42.658;23.350;2022-11-03T01:21:09;97.10;;;91.40;;
2035;SDS011;23642;42.658;23.350;2022-11-03T01:23:36;99.17;;;93.23;;
2035;SDS011;23642;42.658;23.350;2022-11-03T01:26:03;100.27;;;94.10;;
2035;SDS011;23642;42.658;23.350;2022-11-03T01:28:32;101.07;;;95.17;;
2035;SDS011;23642;42.658;23.350;2022-11-03T01:31:01;102.90;;;97.10;;
2035;SDS011;23642;42.658;23.350;2022-11-03T01:33:29;103.83;;;97.63;;
2035;SDS011;23642;42.658;23.350;2022-11-03T01:35:57;102.23;;;95.93;;
2035;SDS011;23642;42.658;23.350;2022-11-03T01:38:24;106.23;;;99.77;;
2035;SDS011;23642;42.658;23.350;2022-11-03T01:40:51;104.50;;;98.23;;
2035;SDS011;23642;42.658;23.350;2022-11-03T01:43:18;103.37;;;97.23;;
2035;SDS011;23642;42.658;23.350;2022-11-03T01:45:47;101.33;;;95.17;;
2035;SDS011;23642;42.658;23.350;2022-11-03T01:48:18;98.77;;;92.47;;
2035;SDS011;23642;42.658;23.350;2022-11-03T01:50:48;105.53;;;99.03;;
2035;SDS011;23642;42.658;23.350;2022-11-03T01:53:18;106.07;;;99.53;;
2035;SDS011;23642;42.658;23.350;2022-11-03T01:55:46;105.00;;;98.97;;
2035;SDS011;23642;42.658;23.350;2022-11-03T01:58:17;106.33;;;99.83;;
2035;SDS011;23642;42.658;23.350;2022-11-03T02:00:48;105.80;;;99.30;;
2035;SDS011;23642;42.658;23.350;2022-11-03T02:03:17;106.90;;;100.40;;
2035;SDS011;23642;42.658;23.350;2022-11-03T02:05:45;107.53;;;101.23;;
2035;SDS011;23642;42.658;23.350;2022-11-03T02:08:15;108.23;;;101.63;;
2035;SDS011;23642;42.658;23.350;2022-11-03T02:10:47;110.03;;;103.37;;
2035;SDS011;23642;42.658;23.350;2022-11-03T02:13:16;112.13;;;105.60;;
2035;SDS011;23642;42.658;23.350;2022-11-03T02:15:45;106.43;;;100.07;;
2035;SDS011;23642;42.658;23.350;2022-11-03T02:18:14;108.17;;;101.00;;
2035;SDS011;23642;42.658;23.350;2022-11-03T02:20:43;106.37;;;99.67;;
2035;SDS011;23642;42.658;23.350;2022-11-03T02:23:23;109.17;;;102.53;;
2035;SDS011;23642;42.658;23.350;2022-11-03T02:25:59;115.13;;;107.33;;
2035;SDS011;23642;42.658;23.350;2022-11-03T02:28:27;113.47;;;106.50;;
2035;SDS011;23642;42.658;23.350;2022-11-03T02:31:00;113.63;;;106.47;;
2035;SDS011;23642;42.658;23.350;2022-11-03T02:33:36;109.63;;;102.90;;
2035;SDS011;23642;42.658;23.350;2022-11-03T02:36:10;109.40;;;102.70;;
2035;SDS011;23642;42.658;23.350;2022-11-03T02:38:42;107.47;;;100.60;;
2035;SDS011;23642;42.658;23.350;2022-11-03T02:41:14;112.63;;;105.33;;
2035;SDS011;23642;42.658;23.350;2022-11-03T02:43:43;113.33;;;106.23;;
2035;SDS011;23642;42.658;23.350;2022-11-03T02:46:12;114.70;;;107.10;;
2035;SDS011;23642;42.658;23.350;2022-11-03T02:48:41;106.30;;;99.47;;
2035;SDS011;23642;42.658;23.350;2022-11-03T02:51:08;112.37;;;105.30;;
2035;SDS011;23642;42.658;23.350;2022-11-03T02:53:37;114.70;;;107.53;;
2035;SDS011;23642;42.658;23.350;2022-11-03T02:56:09;114.10;;;106.77;;
2035;SDS011;23642;42.658;23.350;2022-11-03T02:58:42;112.67;;;105.97;;
2035;SDS011;23642;42.658;23.350;2022-11-03T03:01:18;113.70;;;106.73;;
2035;SDS011;23642;42.658;23.350;2022-11-03T03:03:51;114.17;;;106.80;;
2035;SDS011;23642;42.658;23.350;2022-11-03T03:06:21;114.40;;;107.40;;
2035;SDS011;23642;42.658;23.350;2022-11-03T03:08:52;116.07;;;108.67;;
2035;SDS011;23642;42.658;23.350;2022-11-03T03:11:22;111.87;;;105.13;;
2035;SDS011;23642;42.658;23.350;2022-11-03T03:14:04;111.33;;;104.20;;
2035;SDS011;23642;42.658;23.350;2022-11-03T03:16:36;111.67;;;104.77;;
2035;SDS011;23642;42.658;23.350;2022-11-03T03:19:12;111.30;;;104.03;;
2035;SDS011;23642;42.658;23.350;2022-11-03T03:21:46;110.20;;;103.40;;
2035;SDS011;23642;42.658;23.350;2022-11-03T03:24:18;112.73;;;105.60;;
2035;SDS011;23642;42.658;23.350;2022-11-03T03:26:51;110.17;;;103.47;;
2035;SDS011;23642;42.658;23.350;2022-11-03T03:29:25;110.67;;;103.17;;
2035;SDS011;23642;42.658;23.350;2022-11-03T03:31:55;111.77;;;104.70;;
2035;SDS011;23642;42.658;23.350;2022-11-03T03:34:26;109.67;;;102.67;;
2035;SDS011;23642;42.658;23.350;2022-11-03T03:36:54;110.03;;;103.23;;
2035;SDS011;23642;42.658;23.350;2022-11-03T03:39:26;110.13;;;102.80;;
2035;SDS011;23642;42.658;23.350;2022-11-03T03:41:56;110.47;;;103.67;;
2035;SDS011;23642;42.658;23.350;2022-11-03T03:44:27;105.60;;;98.77;;
2035;SDS011;23642;42.658;23.350;2022-11-03T03:46:57;110.20;;;102.90;;
2035;SDS011;23642;42.658;23.350;2022-11-03T03:49:26;110.60;;;103.30;;
2035;SDS011;23642;42.658;23.350;2022-11-03T03:51:52;113.90;;;106.93;;
2035;SDS011;23642;42.658;23.350;2022-11-03T03:54:19;108.13;;;100.67;;
2035;SDS011;23642;42.658;23.350;2022-11-03T03:56:47;106.37;;;99.37;;
2035;SDS011;23642;42.658;23.350;2022-11-03T03:59:19;109.17;;;101.87;;
2035;SDS011;23642;42.658;23.350;2022-11-03T04:01:47;110.53;;;103.60;;
2035;SDS011;23642;42.658;23.350;2022-11-03T04:04:14;110.93;;;103.43;;
2035;SDS011;23642;42.658;23.350;2022-11-03T04:06:41;108.60;;;101.57;;
2035;SDS011;23642;42.658;23.350;2022-11-03T04:09:08;112.63;;;105.27;;
2035;SDS011;23642;42.658;23.350;2022-11-03T04:11:37;111.23;;;103.93;;
2035;SDS011;23642;42.658;23.350;2022-11-03T04:14:21;108.20;;;100.40;;
2035;SDS011;23642;42.658;23.350;2022-11-03T04:17:09;109.77;;;102.37;;
2035;SDS011;23642;42.658;23.350;2022-11-03T04:20:01;105.37;;;98.17;;
2035;SDS011;23642;42.658;23.350;2022-11-03T04:22:46;108.20;;;101.00;;
2035;SDS011;23642;42.658;23.350;2022-11-03T04:25:12;109.20;;;101.80;;
2035;SDS011;23642;42.658;23.350;2022-11-03T04:27:39;109.33;;;101.43;;
2035;SDS011;23642;42.658;23.350;2022-11-03T04:30:09;108.70;;;100.57;;
2035;SDS011;23642;42.658;23.350;2022-11-03T04:32:42;105.80;;;98.37;;
2035;SDS011;23642;42.658;23.350;2022-11-03T04:35:13;106.97;;;99.87;;
2035;SDS011;23642;42.658;23.350;2022-11-03T04:37:44;106.40;;;99.27;;
2035;SDS011;23642;42.658;23.350;2022-11-03T04:40:12;106.47;;;99.33;;
2035;SDS011;23642;42.658;23.350;2022-11-03T04:42:40;104.37;;;96.60;;
2035;SDS011;23642;42.658;23.350;2022-11-03T04:45:12;106.27;;;98.90;;
2035;SDS011;23642;42.658;23.350;2022-11-03T04:47:46;105.63;;;97.67;;
2035;SDS011;23642;42.658;23.350;2022-11-03T04:50:14;105.80;;;97.80;;
2035;SDS011;23642;42.658;23.350;2022-11-03T04:52:43;105.40;;;98.10;;
2035;SDS011;23642;42.658;23.350;2022-11-03T04:55:11;107.47;;;100.07;;
2035;SDS011;23642;42.658;23.350;2022-11-03T04:57:40;105.40;;;97.60;;
2035;SDS011;23642;42.658;23.350;2022-11-03T05:00:12;107.23;;;98.90;;
2035;SDS011;23642;42.658;23.350;2022-11-03T05:02:41;106.73;;;99.00;;
2035;SDS011;23642;42.658;23.350;2022-11-03T05:05:14;107.17;;;99.33;;
2035;SDS011;23642;42.658;23.350;2022-11-03T05:07:43;107.27;;;99.57;;
2035;SDS011;23642;42.658;23.350;2022-11-03T05:10:14;106.97;;;98.83;;
2035;SDS011;23642;42.658;23.350;2022-11-03T05:12:42;108.77;;;100.40;;
2035;SDS011;23642;42.658;23.350;2022-11-03T05:15:22;106.83;;;98.43;;
2035;SDS011;23642;42.658;23.350;2022-11-03T05:17:54;108.20;;;99.93;;
2035;SDS011;23642;42.658;23.350;2022-11-03T05:20:30;105.00;;;97.70;;
2035;SDS011;23642;42.658;23.350;2022-11-03T05:23:00;105.33;;;97.70;;
2035;SDS011;23642;42.658;23.350;2022-11-03T05:25:36;106.50;;;98.87;;
2035;SDS011;23642;42.658;23.350;2022-11-03T05:28:08;106.83;;;98.70;;
2035;SDS011;23642;42.658;23.350;2022-11-03T05:30:43;109.23;;;100.93;;
2035;SDS011;23642;42.658;23.350;2022-11-03T05:33:14;105.10;;;97.27;;
2035;SDS011;23642;42.658;23.350;2022-11-03T05:35:48;107.43;;;99.47;;
2035;SDS011;23642;42.658;23.350;2022-11-03T05:38:15;108.30;;;99.60;;
2035;SDS011;23642;42.658;23.350;2022-11-03T05:40:47;107.07;;;99.27;;
2035;SDS011;23642;42.658;23.350;2022-11-03T05:43:15;112.80;;;103.60;;
2035;SDS011;23642;42.658;23.350;2022-11-03T05:45:43;106.30;;;98.60;;
2035;SDS011;23642;42.658;23.350;2022-11-03T05:48:15;106.47;;;98.53;;
2035;SDS011;23642;42.658;23.350;2022-11-03T05:50:44;110.77;;;102.13;;
2035;SDS011;23642;42.658;23.350;2022-11-03T05:53:17;109.40;;;101.00;;
2035;SDS011;23642;42.658;23.350;2022-11-03T05:55:50;109.17;;;101.20;;
2035;SDS011;23642;42.658;23.350;2022-11-03T05:58:20;107.03;;;99.10;;
2035;SDS011;23642;42.658;23.350;2022-11-03T06:00:50;110.97;;;102.17;;
2035;SDS011;23642;42.658;23.350;2022-11-03T06:03:20;111.60;;;102.40;;
2035;SDS011;23642;42.658;23.350;2022-11-03T06:05:50;109.10;;;101.43;;
2035;SDS011;23642;42.658;23.350;2022-11-03T06:08:19;110.53;;;102.17;;
2035;SDS011;23642;42.658;23.350;2022-11-03T06:10:48;112.30;;;103.70;;
2035;SDS011;23642;42.658;23.350;2022-11-03T06:13:18;109.60;;;101.57;;
2035;SDS011;23642;42.658;23.350;2022-11-03T06:15:48;111.97;;;102.60;;
2035;SDS011;23642;42.658;23.350;2022-11-03T06:18:21;110.53;;;102.10;;
2035;SDS011;23642;42.658;23.350;2022-11-03T06:20:51;113.87;;;105.40;;
2035;SDS011;23642;42.658;23.350;2022-11-03T06:23:21;112.63;;;103.33;;
2035;SDS011;23642;42.658;23.350;2022-11-03T06:25:48;113.50;;;104.67;;
2035;SDS011;23642;42.658;23.350;2022-11-03T06:28:19;109.30;;;101.20;;
2035;SDS011;23642;42.658;23.350;2022-11-03T06:30:48;111.33;;;102.67;;
2035;SDS011;23642;42.658;23.350;2022-11-03T06:33:15;112.63;;;103.77;;
2035;SDS011;23642;42.658;23.350;2022-11-03T06:35:47;111.03;;;102.43;;
2035;SDS011;23642;42.658;23.350;2022-11-03T06:38:17;112.40;;;104.03;;
2035;SDS011;23642;42.658;23.350;2022-11-03T06:40:49;110.93;;;102.70;;
2035;SDS011;23642;42.658;23.350;2022-11-03T06:43:17;111.43;;;102.87;;
2035;SDS011;23642;42.658;23.350;2022-11-03T06:45:50;112.70;;;104.20;;
2035;SDS011;23642;42.658;23.350;2022-11-03T06:48:25;112.27;;;104.23;;
2035;SDS011;23642;42.658;23.350;2022-11-03T06:50:54;113.80;;;104.77;;
2035;SDS011;23642;42.658;23.350;2022-11-03T06:53:24;117.87;;;108.20;;
2035;SDS011;23642;42.658;23.350;2022-11-03T06:55:56;112.27;;;103.53;;
2035;SDS011;23642;42.658;23.350;2022-11-03T06:58:24;115.97;;;107.13;;
2035;SDS011;23642;42.658;23.350;2022-11-03T07:00:54;119.63;;;109.53;;
2035;SDS011;23642;42.658;23.350;2022-11-03T07:03:24;114.17;;;105.67;;
2035;SDS011;23642;42.658;23.350;2022-11-03T07:05:55;111.57;;;103.13;;
2035;SDS011;23642;42.658;23.350;2022-11-03T07:08:27;112.10;;;103.70;;
2035;SDS011;23642;42.658;23.350;2022-11-03T07:11:03;111.43;;;103.33;;
2035;SDS011;23642;42.658;23.350;2022-11-03T07:13:38;115.03;;;106.50;;
2035;SDS011;23642;42.658;23.350;2022-11-03T07:16:10;112.30;;;104.00;;
2035;SDS011;23642;42.658;23.350;2022-11-03T07:18:40;113.50;;;105.13;;
2035;SDS011;23642;42.658;23.350;2022-11-03T07:21:18;112.27;;;104.17;;
2035;SDS011;23642;42.658;23.350;2022-11-03T07:23:53;110.93;;;102.90;;
2035;SDS011;23642;42.658;23.350;2022-11-03T07:26:23;114.20;;;105.53;;
2035;SDS011;23642;42.658;23.350;2022-11-03T07:28:51;111.50;;;103.20;;
2035;SDS011;23642;42.658;23.350;2022-11-03T07:31:21;115.00;;;106.20;;
2035;SDS011;23642;42.658;23.350;2022-11-03T07:33:54;113.47;;;104.73;;
2035;SDS011;23642;42.658;23.350;2022-11-03T07:36:21;111.73;;;103.80;;
2035;SDS011;23642;42.658;23.350;2022-11-03T07:38:50;114.37;;;106.03;;
2035;SDS011;23642;42.658;23.350;2022-11-03T07:41:19;114.67;;;105.57;;
2035;SDS011;23642;42.658;23.350;2022-11-03T07:43:52;117.77;;;109.17;;
2035;SDS011;23642;42.658;23.350;2022-11-03T07:46:20;118.03;;;108.77;;
2035;SDS011;23642;42.658;23.350;2022-11-03T07:49:00;119.13;;;109.87;;
2035;SDS011;23642;42.658;23.350;2022-11-03T07:51:29;117.40;;;109.10;;
2035;SDS011;23642;42.658;23.350;2022-11-03T07:53:57;117.93;;;109.23;;
2035;SDS011;23642;42.658;23.350;2022-11-03T07:56:31;119.00;;;109.97;;
2035;SDS011;23642;42.658;23.350;2022-11-03T07:59:03;114.03;;;105.63;;
2035;SDS011;23642;42.658;23.350;2022-11-03T08:01:40;119.33;;;109.00;;
2035;SDS011;23642;42.658;23.350;2022-11-03T08:04:09;118.43;;;109.73;;
2035;SDS011;23642;42.658;23.350;2022-11-03T08:06:37;118.03;;;108.93;;
2035;SDS011;23642;42.658;23.350;2022-11-03T08:09:04;122.97;;;113.43;;
2035;SDS011;23642;42.658;23.350;2022-11-03T08:11:31;120.37;;;111.63;;
2035;SDS011;23642;42.658;23.350;2022-11-03T08:13:58;118.30;;;109.60;;
2035;SDS011;23642;42.658;23.350;2022-11-03T08:16:27;121.93;;;113.03;;
2035;SDS011;23642;42.658;23.350;2022-11-03T08:18:55;115.40;;;106.67;;
2035;SDS011;23642;42.658;23.350;2022-11-03T08:21:22;116.97;;;107.73;;
2035;SDS011;23642;42.658;23.350;2022-11-03T08:23:49;115.90;;;107.13;;
2035;SDS011;23642;42.658;23.350;2022-11-03T08:26:16;115.43;;;106.93;;
2035;SDS011;23642;42.658;23.350;2022-11-03T08:28:42;117.37;;;108.93;;
2035;SDS011;23642;42.658;23.350;2022-11-03T08:31:13;116.70;;;107.63;;
2035;SDS011;23642;42.658;23.350;2022-11-03T08:33:43;115.70;;;106.40;;
2035;SDS011;23642;42.658;23.350;2022-11-03T08:36:17;116.00;;;105.67;;
2035;SDS011;23642;42.658;23.350;2022-11-03T08:38:44;118.43;;;109.30;;
2035;SDS011;23642;42.658;23.350;2022-11-03T08:41:13;116.17;;;107.23;;
2035;SDS011;23642;42.658;23.350;2022-11-03T08:43:39;117.60;;;108.17;;
2035;SDS011;23642;42.658;23.350;2022-11-03T08:46:06;116.00;;;106.73;;
2035;SDS011;23642;42.658;23.350;2022-11-03T08:48:33;113.57;;;104.93;;
2035;SDS011;23642;42.658;23.350;2022-11-03T08:51:01;118.27;;;109.40;;
2035;SDS011;23642;42.658;23.350;2022-11-03T08:53:28;115.50;;;106.60;;
2035;SDS011;23642;42.658;23.350;2022-11-03T08:55:55;115.73;;;107.37;;
2035;SDS011;23642;42.658;23.350;2022-11-03T08:58:24;116.83;;;107.47;;
2035;SDS011;23642;42.658;23.350;2022-11-03T09:00:51;114.90;;;106.43;;
2035;SDS011;23642;42.658;23.350;2022-11-03T09:03:18;115.30;;;106.70;;
2035;SDS011;23642;42.658;23.350;2022-11-03T09:05:45;117.37;;;108.37;;
2035;SDS011;23642;42.658;23.350;2022-11-03T09:08:13;113.87;;;105.37;;
2035;SDS011;23642;42.658;23.350;2022-11-03T09:10:39;115.20;;;107.00;;
2035;SDS011;23642;42.658;23.350;2022-11-03T09:13:06;116.03;;;107.73;;
2035;SDS011;23642;42.658;23.350;2022-11-03T09:15:33;115.23;;;106.53;;
2035;SDS011;23642;42.658;23.350;2022-11-03T09:18:18;114.10;;;105.40;;
2035;SDS011;23642;42.658;23.350;2022-11-03T09:20:46;118.13;;;109.53;;
2035;SDS011;23642;42.658;23.350;2022-11-03T09:23:14;112.77;;;104.67;;
2035;SDS011;23642;42.658;23.350;2022-11-03T09:25:41;113.57;;;105.17;;
2035;SDS011;23642;42.658;23.350;2022-11-03T09:28:07;114.73;;;106.23;;
2035;SDS011;23642;42.658;23.350;2022-11-03T09:30:34;115.03;;;106.73;;
2035;SDS011;23642;42.658;23.350;2022-11-03T09:33:01;112.67;;;104.57;;
2035;SDS011;23642;42.658;23.350;2022-11-03T09:35:28;113.30;;;104.80;;
2035;SDS011;23642;42.658;23.350;2022-11-03T09:37:56;116.23;;;107.23;;
2035;SDS011;23642;42.658;23.350;2022-11-03T09:40:33;112.20;;;104.07;;
2035;SDS011;23642;42.658;23.350;2022-11-03T09:43:01;112.70;;;103.90;;
2035;SDS011;23642;42.658;23.350;2022-11-03T09:45:27;112.67;;;104.37;;
2035;SDS011;23642;42.658;23.350;2022-11-03T09:47:54;112.43;;;104.23;;
2035;SDS011;23642;42.658;23.350;2022-11-03T09:50:21;117.37;;;108.77;;
2035;SDS011;23642;42.658;23.350;2022-11-03T09:52:48;112.83;;;104.80;;
2035;SDS011;23642;42.658;23.350;2022-11-03T09:55:20;111.60;;;103.30;;
2035;SDS011;23642;42.658;23.350;2022-11-03T09:57:51;114.43;;;104.93;;
2035;SDS011;23642;42.658;23.350;2022-11-03T10:00:21;110.57;;;102.77;;
2035;SDS011;23642;42.658;23.350;2022-11-03T10:02:51;113.50;;;105.40;;
2035;SDS011;23642;42.658;23.350;2022-11-03T10:05:21;109.47;;;100.23;;
2035;SDS011;23642;42.658;23.350;2022-11-03T10:07:49;111.83;;;103.33;;
2035;SDS011;23642;42.658;23.350;2022-11-03T10:10:18;108.90;;;100.70;;
2035;SDS011;23642;42.658;23.350;2022-11-03T10:12:46;110.77;;;102.87;;
2035;SDS011;23642;42.658;23.350;2022-11-03T10:15:17;109.47;;;101.40;;
2035;SDS011;23642;42.658;23.350;2022-11-03T10:17:45;108.60;;;100.20;;
2035;SDS011;23642;42.658;23.350;2022-11-03T10:20:15;107.80;;;99.70;;
2035;SDS011;23642;42.658;23.350;2022-11-03T10:22:44;105.23;;;97.90;;
2035;SDS011;23642;42.658;23.350;2022-11-03T10:26:02;106.47;;;98.73;;
2035;SDS011;23642;42.658;23.350;2022-11-03T10:28:35;107.67;;;98.60;;
2035;SDS011;23642;42.658;23.350;2022-11-03T10:34:23;105.23;;;97.33;;
2035;SDS011;23642;42.658;23.350;2022-11-03T10:37:08;105.40;;;97.27;;
2035;SDS011;23642;42.658;23.350;2022-11-03T10:39:48;102.53;;;95.03;;
2035;SDS011;23642;42.658;23.350;2022-11-03T10:42:19;102.60;;;94.90;;
2035;SDS011;23642;42.658;23.350;2022-11-03T10:44:47;101.00;;;94.03;;
2035;SDS011;23642;42.658;23.350;2022-11-03T10:47:21;102.17;;;95.00;;
2035;SDS011;23642;42.658;23.350;2022-11-03T10:49:51;102.67;;;95.00;;
2035;SDS011;23642;42.658;23.350;2022-11-03T10:52:24;105.07;;;96.07;;
2035;SDS011;23642;42.658;23.350;2022-11-03T10:54:54;102.47;;;95.30;;
2035;SDS011;23642;42.658;23.350;2022-11-03T10:57:23;105.43;;;97.00;;
2035;SDS011;23642;42.658;23.350;2022-11-03T10:59:51;100.63;;;93.70;;
2035;SDS011;23642;42.658;23.350;2022-11-03T11:02:20;99.77;;;92.90;;
2035;SDS011;23642;42.658;23.350;2022-11-03T11:04:51;100.80;;;93.57;;
2035;SDS011;23642;42.658;23.350;2022-11-03T11:07:27;99.87;;;93.27;;
2035;SDS011;23642;42.658;23.350;2022-11-03T11:10:04;100.60;;;93.27;;
2035;SDS011;23642;42.658;23.350;2022-11-03T11:12:32;100.30;;;93.23;;
2035;SDS011;23642;42.658;23.350;2022-11-03T11:14:59;101.80;;;94.77;;
2035;SDS011;23642;42.658;23.350;2022-11-03T11:17:41;101.63;;;94.57;;
2035;SDS011;23642;42.658;23.350;2022-11-03T11:20:29;100.07;;;92.10;;
2035;SDS011;23642;42.658;23.350;2022-11-03T11:35:15;98.07;;;91.17;;
2035;SDS011;23642;42.658;23.350;2022-11-03T11:37:44;101.23;;;93.33;;
2035;SDS011;23642;42.658;23.350;2022-11-03T11:40:12;99.83;;;92.93;;
2035;SDS011;23642;42.658;23.350;2022-11-03T11:48:48;96.80;;;90.20;;
2035;SDS011;23642;42.658;23.350;2022-11-03T11:51:15;98.17;;;91.40;;
2035;SDS011;23642;42.658;23.350;2022-11-03T11:53:45;95.57;;;88.80;;
2035;SDS011;23642;42.658;23.350;2022-11-03T11:56:14;97.13;;;90.50;;
2035;SDS011;23642;42.658;23.350;2022-11-03T11:58:42;98.17;;;91.20;;
2035;SDS011;23642;42.658;23.350;2022-11-03T12:01:20;97.50;;;90.37;;
2035;SDS011;23642;42.658;23.350;2022-11-03T12:03:49;98.67;;;91.73;;
2035;SDS011;23642;42.658;23.350;2022-11-03T12:06:30;93.93;;;87.43;;
2035;SDS011;23642;42.658;23.350;2022-11-03T12:09:14;96.47;;;89.37;;
2035;SDS011;23642;42.658;23.350;2022-11-03T12:11:44;96.53;;;90.23;;
2035;SDS011;23642;42.658;23.350;2022-11-03T12:14:22;94.63;;;88.43;;
2035;SDS011;23642;42.658;23.350;2022-11-03T12:16:50;99.03;;;91.70;;
2035;SDS011;23642;42.658;23.350;2022-11-03T12:19:34;98.03;;;91.30;;
2035;SDS011;23642;42.658;23.350;2022-11-03T12:22:02;97.23;;;90.63;;
2035;SDS011;23642;42.658;23.350;2022-11-03T12:24:38;95.80;;;88.80;;
2035;SDS011;23642;42.658;23.350;2022-11-03T12:30:12;97.90;;;90.93;;
2035;SDS011;23642;42.658;23.350;2022-11-03T12:32:40;99.00;;;91.20;;
2035;SDS011;23642;42.658;23.350;2022-11-03T12:35:09;101.17;;;93.87;;
2035;SDS011;23642;42.658;23.350;2022-11-03T12:37:37;98.97;;;92.20;;
2035;SDS011;23642;42.658;23.350;2022-11-03T12:40:07;99.20;;;92.77;;
2035;SDS011;23642;42.658;23.350;2022-11-03T12:42:35;97.05;;;90.43;;
2035;SDS011;23642;42.658;23.350;2022-11-03T12:45:02;98.43;;;91.63;;
2035;SDS011;23642;42.658;23.350;2022-11-03T12:47:29;98.83;;;92.10;;
2035;SDS011;23642;42.658;23.350;2022-11-03T12:49:55;98.63;;;92.23;;
2035;SDS011;23642;42.658;23.350;2022-11-03T12:52:22;95.10;;;88.87;;
2035;SDS011;23642;42.658;23.350;2022-11-03T12:54:51;100.97;;;93.87;;
2035;SDS011;23642;42.658;23.350;2022-11-03T12:57:19;99.77;;;92.20;;
2035;SDS011;23642;42.658;23.350;2022-11-03T12:59:45;99.60;;;92.60;;
2035;SDS011;23642;42.658;23.350;2022-11-03T13:02:12;101.03;;;93.70;;
2035;SDS011;23642;42.658;23.350;2022-11-03T13:04:39;99.93;;;93.20;;
2035;SDS011;23642;42.658;23.350;2022-11-03T13:07:06;97.70;;;91.00;;
2035;SDS011;23642;42.658;23.350;2022-11-03T13:09:34;99.37;;;92.03;;
2035;SDS011;23642;42.658;23.350;2022-11-03T13:12:01;96.47;;;89.83;;
2035;SDS011;23642;42.658;23.350;2022-11-03T13:14:47;94.93;;;88.70;;
2035;SDS011;23642;42.658;23.350;2022-11-03T13:17:13;97.83;;;90.70;;
2035;SDS011;23642;42.658;23.350;2022-11-03T13:19:40;96.13;;;89.40;;
2035;SDS011;23642;42.658;23.350;2022-11-03T13:22:07;98.93;;;92.17;;
2035;SDS011;23642;42.658;23.350;2022-11-03T13:24:34;95.57;;;88.73;;
2035;SDS011;23642;42.658;23.350;2022-11-03T13:27:00;97.40;;;90.63;;
2035;SDS011;23642;42.658;23.350;2022-11-03T13:29:27;95.80;;;89.47;;
2035;SDS011;23642;42.658;23.350;2022-11-03T13:31:55;96.10;;;88.80;;
2035;SDS011;23642;42.658;23.350;2022-11-03T13:34:22;94.37;;;87.30;;
2035;SDS011;23642;42.658;23.350;2022-11-03T13:36:48;96.07;;;88.93;;
2035;SDS011;23642;42.658;23.350;2022-11-03T13:39:15;98.00;;;91.00;;
2035;SDS011;23642;42.658;23.350;2022-11-03T13:41:44;96.47;;;89.67;;
2035;SDS011;23642;42.658;23.350;2022-11-03T13:44:10;93.13;;;86.73;;
2035;SDS011;23642;42.658;23.350;2022-11-03T13:46:38;91.00;;;84.70;;
2035;SDS011;23642;42.658;23.350;2022-11-03T13:49:06;94.97;;;88.57;;
2035;SDS011;23642;42.658;23.350;2022-11-03T13:51:33;93.00;;;86.90;;
2035;SDS011;23642;42.658;23.350;2022-11-03T13:54:00;94.97;;;88.17;;
2035;SDS011;23642;42.658;23.350;2022-11-03T13:56:27;94.80;;;88.37;;
2035;SDS011;23642;42.658;23.350;2022-11-03T13:58:54;95.70;;;88.47;;
2035;SDS011;23642;42.658;23.350;2022-11-03T14:01:21;94.97;;;88.37;;
2035;SDS011;23642;42.658;23.350;2022-11-03T14:03:47;94.70;;;88.30;;
2035;SDS011;23642;42.658;23.350;2022-11-03T14:06:15;93.70;;;87.70;;
2035;SDS011;23642;42.658;23.350;2022-11-03T14:08:42;94.37;;;87.80;;
2035;SDS011;23642;42.658;23.350;2022-11-03T14:11:10;95.37;;;88.60;;
2035;SDS011;23642;42.658;23.350;2022-11-03T14:14:02;98.77;;;91.13;;
2035;SDS011;23642;42.658;23.350;2022-11-03T14:16:29;95.93;;;89.47;;
2035;SDS011;23642;42.658;23.350;2022-11-03T14:18:55;97.87;;;90.77;;
2035;SDS011;23642;42.658;23.350;2022-11-03T14:21:24;95.33;;;88.50;;
2035;SDS011;23642;42.658;23.350;2022-11-03T14:23:50;98.40;;;91.00;;
2035;SDS011;23642;42.658;23.350;2022-11-03T14:26:17;97.57;;;90.20;;
2035;SDS011;23642;42.658;23.350;2022-11-03T14:28:44;94.00;;;87.30;;
2035;SDS011;23642;42.658;23.350;2022-11-03T14:31:11;95.07;;;87.53;;
2035;SDS011;23642;42.658;23.350;2022-11-03T14:33:38;94.37;;;87.87;;
2035;SDS011;23642;42.658;23.350;2022-11-03T14:36:04;99.37;;;91.67;;
2035;SDS011;23642;42.658;23.350;2022-11-03T14:38:33;97.80;;;90.47;;
2035;SDS011;23642;42.658;23.350;2022-11-03T14:40:59;103.20;;;92.57;;
2035;SDS011;23642;42.658;23.350;2022-11-03T14:43:44;99.77;;;91.97;;
2035;SDS011;23642;42.658;23.350;2022-11-03T14:46:10;95.63;;;88.77;;
2035;SDS011;23642;42.658;23.350;2022-11-03T14:48:37;100.73;;;93.10;;